sensor_id;sensor_type;location;lat;lon;timestamp;P1;durP1;ratioP1;P2;durP2;ratioP2
1014;SDS011;8170;48.118;11.628;2023-02-01T00:00:05;4.95;;;3.65;;
1014;SDS011;8170;48.118;11.628;2023-02-01T00:01:11;4.78;;;3.55;;
1014;SDS011;8170;48.118;11.628;2023-02-01T00:02:14;4.38;;;3.53;;
1014;SDS011;8170;48.118;11.628;2023-02-01T00:03:18;4.03;;;3.55;;
1014;SDS011;8170;48.118;11.628;2023-02-01T00:04:22;7.07;;;3.67;;
1014;SDS011;8170;48.118;11.628;2023-02-01T00:05:26;6.20;;;3.95;;
1014;SDS011;8170;48.118;11.628;2023-02-01T00:06:30;4.90;;;3.35;;
1014;SDS011;8170;48.118;11.628;2023-02-01T00:07:36;6.55;;;3.50;;
1014;SDS011;8170;48.118;11.628;2023-02-01T00:08:42;5.25;;;4.07;;
1014;SDS011;8170;48.118;11.628;2023-02-01T00:09:45;4.40;;;3.30;;
1014;SDS011;8170;48.118;11.628;2023-02-01T00:10:48;5.60;;;3.65;;
1014;SDS011;8170;48.118;11.628;2023-02-01T00:11:58;5.50;;;3.50;;
1014;SDS011;8170;48.118;11.628;2023-02-01T00:13:04;4.43;;;3.30;;
1014;SDS011;8170;48.118;11.628;2023-02-01T00:14:06;4.82;;;3.70;;
1014;SDS011;8170;48.118;11.628;2023-02-01T00:15:11;4.00;;;3.38;;
1014;SDS011;8170;48.118;11.628;2023-02-01T00:16:16;4.85;;;3.80;;
1014;SDS011;8170;48.118;11.628;2023-02-01T00:17:21;4.18;;;3.33;;
1014;SDS011;8170;48.118;11.628;2023-02-01T00:18:23;6.53;;;3.80;;
1014;SDS011;8170;48.118;11.628;2023-02-01T00:19:27;5.13;;;3.83;;
1014;SDS011;8170;48.118;11.628;2023-02-01T00:20:29;4.13;;;3.25;;
1014;SDS011;8170;48.118;11.628;2023-02-01T00:21:33;4.30;;;3.47;;
1014;SDS011;8170;48.118;11.628;2023-02-01T00:22:37;4.97;;;3.85;;
1014;SDS011;8170;48.118;11.628;2023-02-01T00:23:40;4.03;;;3.45;;
1014;SDS011;8170;48.118;11.628;2023-02-01T00:24:43;4.03;;;3.20;;
1014;SDS011;8170;48.118;11.628;2023-02-01T00:25:47;5.97;;;4.22;;
1014;SDS011;8170;48.118;11.628;2023-02-01T00:26:49;4.35;;;3.55;;
1014;SDS011;8170;48.118;11.628;2023-02-01T00:27:53;4.13;;;3.72;;
1014;SDS011;8170;48.118;11.628;2023-02-01T00:28:59;3.95;;;3.10;;
1014;SDS011;8170;48.118;11.628;2023-02-01T00:30:05;3.85;;;3.17;;
1014;SDS011;8170;48.118;11.628;2023-02-01T00:31:11;3.40;;;2.97;;
1014;SDS011;8170;48.118;11.628;2023-02-01T00:32:15;5.32;;;3.15;;
1014;SDS011;8170;48.118;11.628;2023-02-01T00:33:17;4.05;;;3.20;;
1014;SDS011;8170;48.118;11.628;2023-02-01T00:34:22;4.07;;;3.17;;
1014;SDS011;8170;48.118;11.628;2023-02-01T00:35:25;4.75;;;3.50;;
1014;SDS011;8170;48.118;11.628;2023-02-01T00:36:28;4.05;;;3.17;;
1014;SDS011;8170;48.118;11.628;2023-02-01T00:37:32;3.55;;;3.13;;
1014;SDS011;8170;48.118;11.628;2023-02-01T00:38:39;4.10;;;2.88;;
1014;SDS011;8170;48.118;11.628;2023-02-01T00:39:43;4.15;;;2.83;;
1014;SDS011;8170;48.118;11.628;2023-02-01T00:40:49;4.30;;;3.00;;
1014;SDS011;8170;48.118;11.628;2023-02-01T00:41:56;4.15;;;3.20;;
1014;SDS011;8170;48.118;11.628;2023-02-01T00:43:09;3.97;;;3.00;;
1014;SDS011;8170;48.118;11.628;2023-02-01T00:44:15;4.40;;;3.20;;
1014;SDS011;8170;48.118;11.628;2023-02-01T00:45:19;6.85;;;3.15;;
1014;SDS011;8170;48.118;11.628;2023-02-01T00:46:24;4.65;;;3.10;;
1014;SDS011;8170;48.118;11.628;2023-02-01T00:47:30;6.15;;;3.15;;
1014;SDS011;8170;48.118;11.628;2023-02-01T00:48:32;3.45;;;3.00;;
1014;SDS011;8170;48.118;11.628;2023-02-01T00:49:36;3.90;;;3.03;;
1014;SDS011;8170;48.118;11.628;2023-02-01T00:50:40;4.60;;;3.40;;
1014;SDS011;8170;48.118;11.628;2023-02-01T00:51:45;6.32;;;3.53;;
1014;SDS011;8170;48.118;11.628;2023-02-01T00:52:48;8.05;;;3.50;;
1014;SDS011;8170;48.118;11.628;2023-02-01T00:53:54;6.22;;;3.70;;
1014;SDS011;8170;48.118;11.628;2023-02-01T00:54:56;4.53;;;3.50;;
1014;SDS011;8170;48.118;11.628;2023-02-01T00:56:02;5.57;;;3.50;;
1014;SDS011;8170;48.118;11.628;2023-02-01T00:57:08;5.55;;;3.80;;
1014;SDS011;8170;48.118;11.628;2023-02-01T00:58:12;6.10;;;4.20;;
1014;SDS011;8170;48.118;11.628;2023-02-01T00:59:19;5.45;;;4.15;;
1014;SDS011;8170;48.118;11.628;2023-02-01T01:00:23;6.32;;;4.18;;
1014;SDS011;8170;48.118;11.628;2023-02-01T01:01:26;3.92;;;3.63;;
1014;SDS011;8170;48.118;11.628;2023-02-01T01:02:32;4.68;;;3.70;;
1014;SDS011;8170;48.118;11.628;2023-02-01T01:03:35;5.40;;;3.60;;
1014;SDS011;8170;48.118;11.628;2023-02-01T01:04:41;5.30;;;3.47;;
1014;SDS011;8170;48.118;11.628;2023-02-01T01:05:46;5.68;;;3.90;;
1014;SDS011;8170;48.118;11.628;2023-02-01T01:06:50;5.25;;;3.70;;
1014;SDS011;8170;48.118;11.628;2023-02-01T01:07:55;5.53;;;4.03;;
1014;SDS011;8170;48.118;11.628;2023-02-01T01:08:59;4.55;;;3.83;;
1014;SDS011;8170;48.118;11.628;2023-02-01T01:10:05;4.90;;;3.70;;
1014;SDS011;8170;48.118;11.628;2023-02-01T01:11:10;5.03;;;3.75;;
1014;SDS011;8170;48.118;11.628;2023-02-01T01:12:16;5.40;;;3.58;;
1014;SDS011;8170;48.118;11.628;2023-02-01T01:13:21;6.25;;;4.13;;
1014;SDS011;8170;48.118;11.628;2023-02-01T01:14:26;4.68;;;3.80;;
1014;SDS011;8170;48.118;11.628;2023-02-01T01:15:30;6.57;;;4.22;;
1014;SDS011;8170;48.118;11.628;2023-02-01T01:16:33;5.00;;;4.03;;
1014;SDS011;8170;48.118;11.628;2023-02-01T01:17:36;5.70;;;4.63;;
1014;SDS011;8170;48.118;11.628;2023-02-01T01:18:40;5.75;;;4.10;;
1014;SDS011;8170;48.118;11.628;2023-02-01T01:19:46;4.90;;;4.35;;
1014;SDS011;8170;48.118;11.628;2023-02-01T01:20:50;5.10;;;4.13;;
1014;SDS011;8170;48.118;11.628;2023-02-01T01:21:52;5.45;;;4.90;;
1014;SDS011;8170;48.118;11.628;2023-02-01T01:22:56;5.53;;;4.30;;
1014;SDS011;8170;48.118;11.628;2023-02-01T01:24:01;6.43;;;4.95;;
1014;SDS011;8170;48.118;11.628;2023-02-01T01:25:07;8.13;;;4.65;;
1014;SDS011;8170;48.118;11.628;2023-02-01T01:26:09;5.20;;;4.28;;
1014;SDS011;8170;48.118;11.628;2023-02-01T01:27:17;6.15;;;4.50;;
1014;SDS011;8170;48.118;11.628;2023-02-01T01:28:25;6.57;;;4.80;;
1014;SDS011;8170;48.118;11.628;2023-02-01T01:29:29;7.30;;;4.70;;
1014;SDS011;8170;48.118;11.628;2023-02-01T01:30:32;6.57;;;4.70;;
1014;SDS011;8170;48.118;11.628;2023-02-01T01:31:38;7.05;;;4.78;;
1014;SDS011;8170;48.118;11.628;2023-02-01T01:32:41;7.55;;;5.15;;
1014;SDS011;8170;48.118;11.628;2023-02-01T01:33:47;7.00;;;5.13;;
1014;SDS011;8170;48.118;11.628;2023-02-01T01:34:50;6.90;;;4.78;;
1014;SDS011;8170;48.118;11.628;2023-02-01T01:35:54;6.57;;;5.13;;
1014;SDS011;8170;48.118;11.628;2023-02-01T01:36:58;5.55;;;4.57;;
1014;SDS011;8170;48.118;11.628;2023-02-01T01:38:03;5.05;;;4.00;;
1014;SDS011;8170;48.118;11.628;2023-02-01T01:39:07;5.80;;;4.90;;
1014;SDS011;8170;48.118;11.628;2023-02-01T01:40:12;5.47;;;4.43;;
1014;SDS011;8170;48.118;11.628;2023-02-01T01:41:18;6.28;;;4.75;;
1014;SDS011;8170;48.118;11.628;2023-02-01T01:42:36;6.93;;;4.75;;
1014;SDS011;8170;48.118;11.628;2023-02-01T01:43:46;6.40;;;4.75;;
1014;SDS011;8170;48.118;11.628;2023-02-01T01:44:57;7.03;;;6.00;;
1014;SDS011;8170;48.118;11.628;2023-02-01T01:46:04;8.13;;;4.57;;
1014;SDS011;8170;48.118;11.628;2023-02-01T01:47:10;6.25;;;5.18;;
1014;SDS011;8170;48.118;11.628;2023-02-01T01:48:13;5.95;;;5.35;;
1014;SDS011;8170;48.118;11.628;2023-02-01T01:49:23;7.78;;;5.60;;
1014;SDS011;8170;48.118;11.628;2023-02-01T01:50:29;9.13;;;5.30;;
1014;SDS011;8170;48.118;11.628;2023-02-01T01:51:37;6.43;;;5.55;;
1014;SDS011;8170;48.118;11.628;2023-02-01T01:52:46;5.97;;;5.00;;
1014;SDS011;8170;48.118;11.628;2023-02-01T01:53:53;6.32;;;5.70;;
1014;SDS011;8170;48.118;11.628;2023-02-01T01:55:05;6.30;;;5.22;;
1014;SDS011;8170;48.118;11.628;2023-02-01T01:56:09;7.57;;;6.00;;
1014;SDS011;8170;48.118;11.628;2023-02-01T01:57:16;8.23;;;6.40;;
1014;SDS011;8170;48.118;11.628;2023-02-01T01:58:22;9.43;;;6.00;;
1014;SDS011;8170;48.118;11.628;2023-02-01T01:59:28;9.57;;;5.97;;
1014;SDS011;8170;48.118;11.628;2023-02-01T02:00:34;7.60;;;5.68;;
1014;SDS011;8170;48.118;11.628;2023-02-01T02:01:38;8.98;;;6.32;;
1014;SDS011;8170;48.118;11.628;2023-02-01T02:02:41;9.60;;;6.10;;
1014;SDS011;8170;48.118;11.628;2023-02-01T02:03:48;9.13;;;6.05;;
1014;SDS011;8170;48.118;11.628;2023-02-01T02:04:52;6.75;;;5.72;;
1014;SDS011;8170;48.118;11.628;2023-02-01T02:05:57;11.10;;;6.78;;
1014;SDS011;8170;48.118;11.628;2023-02-01T02:07:01;8.38;;;6.18;;
1014;SDS011;8170;48.118;11.628;2023-02-01T02:08:09;7.47;;;6.28;;
1014;SDS011;8170;48.118;11.628;2023-02-01T02:09:13;7.75;;;6.80;;
1014;SDS011;8170;48.118;11.628;2023-02-01T02:10:24;7.60;;;6.63;;
1014;SDS011;8170;48.118;11.628;2023-02-01T02:11:48;7.53;;;6.00;;
1014;SDS011;8170;48.118;11.628;2023-02-01T02:12:53;8.68;;;5.70;;
1014;SDS011;8170;48.118;11.628;2023-02-01T02:13:57;6.68;;;5.30;;
1014;SDS011;8170;48.118;11.628;2023-02-01T02:15:02;8.45;;;6.63;;
1014;SDS011;8170;48.118;11.628;2023-02-01T02:16:17;8.13;;;6.13;;
1014;SDS011;8170;48.118;11.628;2023-02-01T02:17:30;6.90;;;5.60;;
1014;SDS011;8170;48.118;11.628;2023-02-01T02:18:44;8.05;;;6.07;;
1014;SDS011;8170;48.118;11.628;2023-02-01T02:21:48;7.10;;;6.05;;
1014;SDS011;8170;48.118;11.628;2023-02-01T02:27:08;8.48;;;5.82;;
1014;SDS011;8170;48.118;11.628;2023-02-01T02:28:43;8.00;;;5.93;;
1014;SDS011;8170;48.118;11.628;2023-02-01T02:30:37;9.07;;;6.63;;
1014;SDS011;8170;48.118;11.628;2023-02-01T02:31:57;9.57;;;6.38;;
1014;SDS011;8170;48.118;11.628;2023-02-01T02:34:45;7.60;;;6.00;;
1014;SDS011;8170;48.118;11.628;2023-02-01T02:35:55;9.05;;;5.90;;
1014;SDS011;8170;48.118;11.628;2023-02-01T02:37:04;8.73;;;6.07;;
1014;SDS011;8170;48.118;11.628;2023-02-01T02:38:15;8.73;;;6.38;;
1014;SDS011;8170;48.118;11.628;2023-02-01T02:39:27;7.25;;;5.93;;
1014;SDS011;8170;48.118;11.628;2023-02-01T02:40:44;6.75;;;6.05;;
1014;SDS011;8170;48.118;11.628;2023-02-01T02:41:54;7.85;;;5.57;;
1014;SDS011;8170;48.118;11.628;2023-02-01T02:43:22;9.43;;;6.05;;
1014;SDS011;8170;48.118;11.628;2023-02-01T02:44:49;7.63;;;6.78;;
1014;SDS011;8170;48.118;11.628;2023-02-01T02:46:20;7.85;;;6.15;;
1014;SDS011;8170;48.118;11.628;2023-02-01T02:47:44;11.65;;;6.82;;
1014;SDS011;8170;48.118;11.628;2023-02-01T02:49:00;8.55;;;5.78;;
1014;SDS011;8170;48.118;11.628;2023-02-01T02:50:15;6.82;;;5.85;;
1014;SDS011;8170;48.118;11.628;2023-02-01T02:51:45;12.20;;;7.00;;
1014;SDS011;8170;48.118;11.628;2023-02-01T02:53:11;7.63;;;5.60;;
1014;SDS011;8170;48.118;11.628;2023-02-01T02:54:36;7.22;;;5.47;;
1014;SDS011;8170;48.118;11.628;2023-02-01T02:55:54;6.40;;;5.40;;
1014;SDS011;8170;48.118;11.628;2023-02-01T02:57:19;6.78;;;6.03;;
1014;SDS011;8170;48.118;11.628;2023-02-01T02:58:44;7.00;;;5.70;;
1014;SDS011;8170;48.118;11.628;2023-02-01T03:00:08;8.30;;;5.65;;
1014;SDS011;8170;48.118;11.628;2023-02-01T03:01:32;7.97;;;5.93;;
1014;SDS011;8170;48.118;11.628;2023-02-01T03:02:54;6.70;;;6.00;;
1014;SDS011;8170;48.118;11.628;2023-02-01T03:04:17;7.80;;;5.85;;
1014;SDS011;8170;48.118;11.628;2023-02-01T03:05:23;6.28;;;5.38;;
1014;SDS011;8170;48.118;11.628;2023-02-01T03:06:28;7.03;;;6.32;;
1014;SDS011;8170;48.118;11.628;2023-02-01T03:07:46;6.43;;;5.22;;
1014;SDS011;8170;48.118;11.628;2023-02-01T03:08:56;8.10;;;5.75;;
1014;SDS011;8170;48.118;11.628;2023-02-01T03:10:02;7.82;;;5.38;;
1014;SDS011;8170;48.118;11.628;2023-02-01T03:11:11;6.93;;;5.45;;
1014;SDS011;8170;48.118;11.628;2023-02-01T03:12:17;6.60;;;5.07;;
1014;SDS011;8170;48.118;11.628;2023-02-01T03:13:52;6.20;;;4.95;;
1014;SDS011;8170;48.118;11.628;2023-02-01T03:14:57;6.93;;;5.20;;
1014;SDS011;8170;48.118;11.628;2023-02-01T03:16:06;7.18;;;5.50;;
1014;SDS011;8170;48.118;11.628;2023-02-01T03:17:18;6.18;;;5.47;;
1014;SDS011;8170;48.118;11.628;2023-02-01T03:18:26;6.05;;;5.00;;
1014;SDS011;8170;48.118;11.628;2023-02-01T03:19:39;9.07;;;4.97;;
1014;SDS011;8170;48.118;11.628;2023-02-01T03:20:47;7.07;;;5.38;;
1014;SDS011;8170;48.118;11.628;2023-02-01T03:21:55;5.75;;;4.97;;
1014;SDS011;8170;48.118;11.628;2023-02-01T03:23:05;6.60;;;5.50;;
1014;SDS011;8170;48.118;11.628;2023-02-01T03:24:12;6.22;;;5.20;;
1014;SDS011;8170;48.118;11.628;2023-02-01T03:25:21;5.28;;;4.78;;
1014;SDS011;8170;48.118;11.628;2023-02-01T03:26:29;8.70;;;5.50;;
1014;SDS011;8170;48.118;11.628;2023-02-01T03:27:35;6.55;;;4.45;;
1014;SDS011;8170;48.118;11.628;2023-02-01T03:28:45;6.13;;;5.35;;
1014;SDS011;8170;48.118;11.628;2023-02-01T03:29:58;6.93;;;5.65;;
1014;SDS011;8170;48.118;11.628;2023-02-01T03:31:06;5.90;;;4.80;;
1014;SDS011;8170;48.118;11.628;2023-02-01T03:32:10;7.50;;;5.50;;
1014;SDS011;8170;48.118;11.628;2023-02-01T03:33:14;5.53;;;4.93;;
1014;SDS011;8170;48.118;11.628;2023-02-01T03:34:25;6.60;;;5.18;;
1014;SDS011;8170;48.118;11.628;2023-02-01T03:35:30;5.32;;;4.82;;
1014;SDS011;8170;48.118;11.628;2023-02-01T03:36:39;6.25;;;5.55;;
1014;SDS011;8170;48.118;11.628;2023-02-01T03:37:46;6.60;;;5.68;;
1014;SDS011;8170;48.118;11.628;2023-02-01T03:38:52;6.32;;;5.68;;
1014;SDS011;8170;48.118;11.628;2023-02-01T03:40:00;5.90;;;5.00;;
1014;SDS011;8170;48.118;11.628;2023-02-01T03:41:10;5.47;;;4.90;;
1014;SDS011;8170;48.118;11.628;2023-02-01T03:42:17;7.03;;;4.90;;
1014;SDS011;8170;48.118;11.628;2023-02-01T03:43:27;6.55;;;5.28;;
1014;SDS011;8170;48.118;11.628;2023-02-01T03:44:36;6.78;;;4.75;;
1014;SDS011;8170;48.118;11.628;2023-02-01T03:45:43;5.28;;;4.65;;
1014;SDS011;8170;48.118;11.628;2023-02-01T03:46:49;6.95;;;5.05;;
1014;SDS011;8170;48.118;11.628;2023-02-01T03:47:56;6.25;;;4.85;;
1014;SDS011;8170;48.118;11.628;2023-02-01T03:49:03;7.40;;;5.45;;
1014;SDS011;8170;48.118;11.628;2023-02-01T03:50:11;5.88;;;4.53;;
1014;SDS011;8170;48.118;11.628;2023-02-01T03:51:19;6.15;;;5.13;;
1014;SDS011;8170;48.118;11.628;2023-02-01T03:52:25;5.25;;;4.70;;
1014;SDS011;8170;48.118;11.628;2023-02-01T03:53:32;5.95;;;4.90;;
1014;SDS011;8170;48.118;11.628;2023-02-01T03:54:40;5.75;;;5.15;;
1014;SDS011;8170;48.118;11.628;2023-02-01T03:55:44;5.50;;;4.75;;
1014;SDS011;8170;48.118;11.628;2023-02-01T03:56:48;7.20;;;5.20;;
1014;SDS011;8170;48.118;11.628;2023-02-01T03:57:56;6.05;;;5.15;;
1014;SDS011;8170;48.118;11.628;2023-02-01T03:59:04;7.28;;;5.25;;
1014;SDS011;8170;48.118;11.628;2023-02-01T04:00:14;6.05;;;5.00;;
1014;SDS011;8170;48.118;11.628;2023-02-01T04:01:19;9.45;;;5.13;;
1014;SDS011;8170;48.118;11.628;2023-02-01T04:02:22;7.10;;;5.32;;
1014;SDS011;8170;48.118;11.628;2023-02-01T04:03:26;8.00;;;5.13;;
1014;SDS011;8170;48.118;11.628;2023-02-01T04:04:30;6.32;;;5.22;;
1014;SDS011;8170;48.118;11.628;2023-02-01T04:05:34;7.18;;;4.78;;
1014;SDS011;8170;48.118;11.628;2023-02-01T04:06:41;5.95;;;5.28;;
1014;SDS011;8170;48.118;11.628;2023-02-01T04:07:45;5.93;;;4.60;;
1014;SDS011;8170;48.118;11.628;2023-02-01T04:08:47;7.82;;;5.50;;
1014;SDS011;8170;48.118;11.628;2023-02-01T04:09:50;5.82;;;4.85;;
1014;SDS011;8170;48.118;11.628;2023-02-01T04:10:52;5.60;;;4.60;;
1014;SDS011;8170;48.118;11.628;2023-02-01T04:11:56;5.10;;;4.50;;
1014;SDS011;8170;48.118;11.628;2023-02-01T04:12:59;6.03;;;4.75;;
1014;SDS011;8170;48.118;11.628;2023-02-01T04:14:03;5.50;;;4.70;;
1014;SDS011;8170;48.118;11.628;2023-02-01T04:15:06;5.70;;;5.00;;
1014;SDS011;8170;48.118;11.628;2023-02-01T04:16:10;4.97;;;4.45;;
1014;SDS011;8170;48.118;11.628;2023-02-01T04:17:12;5.88;;;4.90;;
1014;SDS011;8170;48.118;11.628;2023-02-01T04:18:16;5.28;;;4.50;;
1014;SDS011;8170;48.118;11.628;2023-02-01T04:19:18;8.10;;;4.68;;
1014;SDS011;8170;48.118;11.628;2023-02-01T04:20:21;6.20;;;4.35;;
1014;SDS011;8170;48.118;11.628;2023-02-01T04:21:24;6.45;;;4.75;;
1014;SDS011;8170;48.118;11.628;2023-02-01T04:22:29;5.38;;;4.25;;
1014;SDS011;8170;48.118;11.628;2023-02-01T04:23:31;5.38;;;4.40;;
1014;SDS011;8170;48.118;11.628;2023-02-01T04:24:35;5.35;;;4.80;;
1014;SDS011;8170;48.118;11.628;2023-02-01T04:25:37;5.10;;;4.18;;
1014;SDS011;8170;48.118;11.628;2023-02-01T04:26:41;5.70;;;4.32;;
1014;SDS011;8170;48.118;11.628;2023-02-01T04:27:44;5.68;;;5.10;;
1014;SDS011;8170;48.118;11.628;2023-02-01T04:28:48;5.10;;;4.38;;
1014;SDS011;8170;48.118;11.628;2023-02-01T04:29:50;6.28;;;5.15;;
1014;SDS011;8170;48.118;11.628;2023-02-01T04:30:54;5.15;;;4.65;;
1014;SDS011;8170;48.118;11.628;2023-02-01T04:31:58;7.20;;;5.50;;
1014;SDS011;8170;48.118;11.628;2023-02-01T04:33:00;6.35;;;4.75;;
1014;SDS011;8170;48.118;11.628;2023-02-01T04:34:05;5.50;;;5.00;;
1014;SDS011;8170;48.118;11.628;2023-02-01T04:35:07;5.40;;;4.50;;
1014;SDS011;8170;48.118;11.628;2023-02-01T04:36:11;6.53;;;4.80;;
1014;SDS011;8170;48.118;11.628;2023-02-01T04:37:15;6.45;;;4.90;;
1014;SDS011;8170;48.118;11.628;2023-02-01T04:38:20;4.63;;;4.15;;
1014;SDS011;8170;48.118;11.628;2023-02-01T04:39:23;6.43;;;5.05;;
1014;SDS011;8170;48.118;11.628;2023-02-01T04:40:27;5.50;;;4.60;;
1014;SDS011;8170;48.118;11.628;2023-02-01T04:41:29;5.80;;;5.20;;
1014;SDS011;8170;48.118;11.628;2023-02-01T04:42:33;5.25;;;4.47;;
1014;SDS011;8170;48.118;11.628;2023-02-01T04:43:35;7.47;;;5.45;;
1014;SDS011;8170;48.118;11.628;2023-02-01T04:44:39;5.45;;;4.75;;
1014;SDS011;8170;48.118;11.628;2023-02-01T04:45:46;5.50;;;4.72;;
1014;SDS011;8170;48.118;11.628;2023-02-01T04:46:51;5.68;;;5.10;;
1014;SDS011;8170;48.118;11.628;2023-02-01T04:47:53;5.70;;;4.93;;
1014;SDS011;8170;48.118;11.628;2023-02-01T04:48:57;6.32;;;4.80;;
1014;SDS011;8170;48.118;11.628;2023-02-01T04:49:59;6.57;;;5.38;;
1014;SDS011;8170;48.118;11.628;2023-02-01T04:51:03;5.30;;;4.80;;
1014;SDS011;8170;48.118;11.628;2023-02-01T04:52:06;5.05;;;4.50;;
1014;SDS011;8170;48.118;11.628;2023-02-01T04:53:13;10.05;;;4.50;;
1014;SDS011;8170;48.118;11.628;2023-02-01T04:54:18;5.25;;;4.30;;
1014;SDS011;8170;48.118;11.628;2023-02-01T04:55:23;5.60;;;4.50;;
1014;SDS011;8170;48.118;11.628;2023-02-01T04:56:27;6.20;;;5.60;;
1014;SDS011;8170;48.118;11.628;2023-02-01T04:57:37;5.75;;;4.80;;
1014;SDS011;8170;48.118;11.628;2023-02-01T04:58:46;7.00;;;4.93;;
1014;SDS011;8170;48.118;11.628;2023-02-01T04:59:50;6.45;;;4.75;;
1014;SDS011;8170;48.118;11.628;2023-02-01T05:00:53;5.53;;;4.32;;
1014;SDS011;8170;48.118;11.628;2023-02-01T05:01:59;7.43;;;5.45;;
1014;SDS011;8170;48.118;11.628;2023-02-01T05:03:02;6.03;;;5.35;;
1014;SDS011;8170;48.118;11.628;2023-02-01T05:04:07;5.43;;;4.93;;
1014;SDS011;8170;48.118;11.628;2023-02-01T05:05:10;6.78;;;5.28;;
1014;SDS011;8170;48.118;11.628;2023-02-01T05:06:14;6.00;;;4.88;;
1014;SDS011;8170;48.118;11.628;2023-02-01T05:07:16;5.28;;;4.53;;
1014;SDS011;8170;48.118;11.628;2023-02-01T05:08:34;5.43;;;4.45;;
1014;SDS011;8170;48.118;11.628;2023-02-01T05:09:42;6.45;;;5.78;;
1014;SDS011;8170;48.118;11.628;2023-02-01T05:10:46;5.30;;;4.35;;
1014;SDS011;8170;48.118;11.628;2023-02-01T05:11:48;8.48;;;5.50;;
1014;SDS011;8170;48.118;11.628;2023-02-01T05:13:09;7.20;;;5.28;;
1014;SDS011;8170;48.118;11.628;2023-02-01T05:14:31;6.75;;;5.40;;
1014;SDS011;8170;48.118;11.628;2023-02-01T05:15:35;5.70;;;5.20;;
1014;SDS011;8170;48.118;11.628;2023-02-01T05:16:38;7.15;;;5.50;;
1014;SDS011;8170;48.118;11.628;2023-02-01T05:17:43;7.55;;;5.32;;
1014;SDS011;8170;48.118;11.628;2023-02-01T05:18:47;7.03;;;5.10;;
1014;SDS011;8170;48.118;11.628;2023-02-01T05:19:52;6.53;;;5.60;;
1014;SDS011;8170;48.118;11.628;2023-02-01T05:20:54;6.53;;;5.00;;
1014;SDS011;8170;48.118;11.628;2023-02-01T05:21:58;6.85;;;5.30;;
1014;SDS011;8170;48.118;11.628;2023-02-01T05:23:02;6.13;;;5.53;;
1014;SDS011;8170;48.118;11.628;2023-02-01T05:24:07;7.05;;;5.65;;
1014;SDS011;8170;48.118;11.628;2023-02-01T05:25:18;7.40;;;6.10;;
1014;SDS011;8170;48.118;11.628;2023-02-01T05:26:22;6.57;;;5.88;;
1014;SDS011;8170;48.118;11.628;2023-02-01T05:27:26;5.80;;;5.25;;
1014;SDS011;8170;48.118;11.628;2023-02-01T05:28:33;7.35;;;5.63;;
1014;SDS011;8170;48.118;11.628;2023-02-01T05:29:50;6.28;;;5.20;;
1014;SDS011;8170;48.118;11.628;2023-02-01T05:30:55;7.88;;;5.47;;
1014;SDS011;8170;48.118;11.628;2023-02-01T05:31:57;6.97;;;5.63;;
1014;SDS011;8170;48.118;11.628;2023-02-01T05:33:23;6.50;;;5.50;;
1014;SDS011;8170;48.118;11.628;2023-02-01T05:34:28;7.82;;;6.10;;
1014;SDS011;8170;48.118;11.628;2023-02-01T05:35:33;6.20;;;5.20;;
1014;SDS011;8170;48.118;11.628;2023-02-01T05:36:40;7.57;;;6.15;;
1014;SDS011;8170;48.118;11.628;2023-02-01T05:37:42;7.65;;;5.88;;
1014;SDS011;8170;48.118;11.628;2023-02-01T05:38:48;7.10;;;5.63;;
1014;SDS011;8170;48.118;11.628;2023-02-01T05:39:53;7.72;;;6.53;;
1014;SDS011;8170;48.118;11.628;2023-02-01T05:40:59;7.85;;;5.78;;
1014;SDS011;8170;48.118;11.628;2023-02-01T05:42:05;6.35;;;5.15;;
1014;SDS011;8170;48.118;11.628;2023-02-01T05:43:42;7.03;;;5.57;;
1014;SDS011;8170;48.118;11.628;2023-02-01T05:44:45;6.82;;;5.75;;
1014;SDS011;8170;48.118;11.628;2023-02-01T05:45:49;6.40;;;5.47;;
1014;SDS011;8170;48.118;11.628;2023-02-01T05:46:53;6.05;;;4.95;;
1014;SDS011;8170;48.118;11.628;2023-02-01T05:48:03;7.50;;;5.88;;
1014;SDS011;8170;48.118;11.628;2023-02-01T05:49:09;5.90;;;5.28;;
1014;SDS011;8170;48.118;11.628;2023-02-01T05:50:13;8.88;;;5.93;;
1014;SDS011;8170;48.118;11.628;2023-02-01T05:51:19;6.80;;;5.35;;
1014;SDS011;8170;48.118;11.628;2023-02-01T05:52:30;6.35;;;5.13;;
1014;SDS011;8170;48.118;11.628;2023-02-01T05:53:34;6.60;;;6.00;;
1014;SDS011;8170;48.118;11.628;2023-02-01T05:54:40;7.50;;;6.13;;
1014;SDS011;8170;48.118;11.628;2023-02-01T05:55:42;7.47;;;5.78;;
1014;SDS011;8170;48.118;11.628;2023-02-01T05:56:54;9.15;;;5.30;;
1014;SDS011;8170;48.118;11.628;2023-02-01T05:57:58;5.75;;;5.15;;
1014;SDS011;8170;48.118;11.628;2023-02-01T05:59:04;6.88;;;5.63;;
1014;SDS011;8170;48.118;11.628;2023-02-01T06:00:08;7.57;;;5.32;;
1014;SDS011;8170;48.118;11.628;2023-02-01T06:01:15;6.57;;;5.35;;
1014;SDS011;8170;48.118;11.628;2023-02-01T06:02:18;6.28;;;5.55;;
1014;SDS011;8170;48.118;11.628;2023-02-01T06:03:26;6.90;;;5.63;;
1014;SDS011;8170;48.118;11.628;2023-02-01T06:04:32;6.70;;;5.57;;
1014;SDS011;8170;48.118;11.628;2023-02-01T06:05:45;6.65;;;5.40;;
1014;SDS011;8170;48.118;11.628;2023-02-01T06:06:48;5.95;;;5.35;;
1014;SDS011;8170;48.118;11.628;2023-02-01T06:07:54;9.32;;;6.32;;
1014;SDS011;8170;48.118;11.628;2023-02-01T06:08:59;6.88;;;5.80;;
1014;SDS011;8170;48.118;11.628;2023-02-01T06:10:05;6.05;;;5.22;;
1014;SDS011;8170;48.118;11.628;2023-02-01T06:11:11;8.55;;;5.78;;
1014;SDS011;8170;48.118;11.628;2023-02-01T06:12:34;7.25;;;5.47;;
1014;SDS011;8170;48.118;11.628;2023-02-01T06:13:38;5.97;;;5.22;;
1014;SDS011;8170;48.118;11.628;2023-02-01T06:14:41;7.05;;;6.35;;
1014;SDS011;8170;48.118;11.628;2023-02-01T06:15:51;7.90;;;6.03;;
1014;SDS011;8170;48.118;11.628;2023-02-01T06:16:55;5.88;;;5.00;;
1014;SDS011;8170;48.118;11.628;2023-02-01T06:18:01;6.70;;;4.93;;
1014;SDS011;8170;48.118;11.628;2023-02-01T06:19:03;6.45;;;5.75;;
1014;SDS011;8170;48.118;11.628;2023-02-01T06:20:09;7.35;;;5.18;;
1014;SDS011;8170;48.118;11.628;2023-02-01T06:21:16;7.63;;;6.78;;
1014;SDS011;8170;48.118;11.628;2023-02-01T06:22:26;7.07;;;5.85;;
1014;SDS011;8170;48.118;11.628;2023-02-01T06:23:29;6.72;;;5.25;;
1014;SDS011;8170;48.118;11.628;2023-02-01T06:24:35;7.40;;;5.25;;
1014;SDS011;8170;48.118;11.628;2023-02-01T06:25:49;7.28;;;5.72;;
1014;SDS011;8170;48.118;11.628;2023-02-01T06:26:56;6.47;;;5.70;;
1014;SDS011;8170;48.118;11.628;2023-02-01T06:28:03;6.30;;;5.38;;
1014;SDS011;8170;48.118;11.628;2023-02-01T06:29:10;6.85;;;5.28;;
1014;SDS011;8170;48.118;11.628;2023-02-01T06:30:19;7.28;;;5.65;;
1014;SDS011;8170;48.118;11.628;2023-02-01T06:31:23;6.75;;;5.55;;
1014;SDS011;8170;48.118;11.628;2023-02-01T06:32:29;7.78;;;5.88;;
1014;SDS011;8170;48.118;11.628;2023-02-01T06:33:34;8.30;;;5.65;;
1014;SDS011;8170;48.118;11.628;2023-02-01T06:34:39;8.43;;;6.05;;
1014;SDS011;8170;48.118;11.628;2023-02-01T06:35:43;8.57;;;5.75;;
1014;SDS011;8170;48.118;11.628;2023-02-01T06:36:50;7.75;;;6.22;;
1014;SDS011;8170;48.118;11.628;2023-02-01T06:37:59;8.43;;;5.18;;
1014;SDS011;8170;48.118;11.628;2023-02-01T06:39:04;6.65;;;5.55;;
1014;SDS011;8170;48.118;11.628;2023-02-01T06:40:51;7.47;;;5.53;;
1014;SDS011;8170;48.118;11.628;2023-02-01T06:41:58;6.60;;;5.30;;
1014;SDS011;8170;48.118;11.628;2023-02-01T06:43:09;6.93;;;5.35;;
1014;SDS011;8170;48.118;11.628;2023-02-01T06:44:17;6.78;;;5.55;;
1014;SDS011;8170;48.118;11.628;2023-02-01T06:45:22;10.18;;;5.95;;
1014;SDS011;8170;48.118;11.628;2023-02-01T06:46:25;8.02;;;5.85;;
1014;SDS011;8170;48.118;11.628;2023-02-01T06:47:31;12.05;;;5.95;;
1014;SDS011;8170;48.118;11.628;2023-02-01T06:48:37;7.00;;;5.10;;
1014;SDS011;8170;48.118;11.628;2023-02-01T06:49:40;7.60;;;5.75;;
1014;SDS011;8170;48.118;11.628;2023-02-01T06:50:44;5.93;;;5.07;;
1014;SDS011;8170;48.118;11.628;2023-02-01T06:51:50;7.13;;;5.60;;
1014;SDS011;8170;48.118;11.628;2023-02-01T06:52:52;7.30;;;5.50;;
1014;SDS011;8170;48.118;11.628;2023-02-01T06:53:58;6.88;;;5.47;;
1014;SDS011;8170;48.118;11.628;2023-02-01T06:55:03;11.00;;;5.30;;
1014;SDS011;8170;48.118;11.628;2023-02-01T06:56:08;8.43;;;5.50;;
1014;SDS011;8170;48.118;11.628;2023-02-01T06:59:25;10.25;;;4.95;;
1014;SDS011;8170;48.118;11.628;2023-02-01T07:00:30;7.90;;;5.18;;